sensor_id;sensor_type;location;lat;lon;timestamp;P1;durP1;ratioP1;P2;durP2;ratioP2
23121;SDS011;11730;51.248;22.534;2022-09-27T00:01:16;31.52;;;14.60;;
23121;SDS011;11730;51.248;22.534;2022-09-27T00:03:43;27.90;;;15.30;;
23121;SDS011;11730;51.248;22.534;2022-09-27T00:06:14;26.90;;;16.10;;
23121;SDS011;11730;51.248;22.534;2022-09-27T00:08:46;27.58;;;15.27;;
23121;SDS011;11730;51.248;22.534;2022-09-27T00:13:55;22.95;;;14.30;;
23121;SDS011;11730;51.248;22.534;2022-09-27T00:16:28;24.30;;;14.35;;
23121;SDS011;11730;51.248;22.534;2022-09-27T00:19:00;18.10;;;12.70;;
23121;SDS011;11730;51.248;22.534;2022-09-27T00:21:29;16.73;;;12.63;;
23121;SDS011;11730;51.248;22.534;2022-09-27T00:23:57;18.27;;;13.13;;
23121;SDS011;11730;51.248;22.534;2022-09-27T00:26:24;21.17;;;13.43;;
23121;SDS011;11730;51.248;22.534;2022-09-27T00:28:52;29.15;;;14.90;;
23121;SDS011;11730;51.248;22.534;2022-09-27T00:33:47;36.67;;;16.00;;
23121;SDS011;11730;51.248;22.534;2022-09-27T00:36:16;82.20;;;18.42;;
23121;SDS011;11730;51.248;22.534;2022-09-27T00:38:43;145.82;;;21.73;;
23121;SDS011;11730;51.248;22.534;2022-09-27T00:41:12;272.15;;;23.17;;
23121;SDS011;11730;51.248;22.534;2022-09-27T00:43:52;214.95;;;21.20;;
23121;SDS011;11730;51.248;22.534;2022-09-27T00:46:33;41.38;;;16.55;;
23121;SDS011;11730;51.248;22.534;2022-09-27T00:49:12;61.10;;;16.67;;
23121;SDS011;11730;51.248;22.534;2022-09-27T00:51:46;301.17;;;25.40;;
23121;SDS011;11730;51.248;22.534;2022-09-27T00:54:17;293.70;;;25.00;;
23121;SDS011;11730;51.248;22.534;2022-09-27T00:56:46;363.92;;;24.23;;
23121;SDS011;11730;51.248;22.534;2022-09-27T01:01:48;199.68;;;20.38;;
23121;SDS011;11730;51.248;22.534;2022-09-27T01:04:16;238.27;;;22.38;;
23121;SDS011;11730;51.248;22.534;2022-09-27T01:06:50;279.98;;;23.33;;
23121;SDS011;11730;51.248;22.534;2022-09-27T01:09:16;168.55;;;20.02;;
23121;SDS011;11730;51.248;22.534;2022-09-27T01:11:45;365.58;;;24.10;;
23121;SDS011;11730;51.248;22.534;2022-09-27T01:33:44;226.15;;;14.18;;
23121;SDS011;11730;51.248;22.534;2022-09-27T01:39:40;194.25;;;14.23;;
23121;SDS011;11730;51.248;22.534;2022-09-27T01:45:05;227.13;;;14.77;;
23121;SDS011;11730;51.248;22.534;2022-09-27T01:47:48;123.60;;;13.50;;
23121;SDS011;11730;51.248;22.534;2022-09-27T01:50:29;63.45;;;11.80;;
23121;SDS011;11730;51.248;22.534;2022-09-27T01:53:00;107.72;;;12.43;;
23121;SDS011;11730;51.248;22.534;2022-09-27T01:55:32;65.38;;;10.75;;
23121;SDS011;11730;51.248;22.534;2022-09-27T01:58:07;75.07;;;10.88;;
23121;SDS011;11730;51.248;22.534;2022-09-27T02:00:38;103.55;;;11.05;;
23121;SDS011;11730;51.248;22.534;2022-09-27T02:03:09;63.53;;;11.95;;
23121;SDS011;11730;51.248;22.534;2022-09-27T02:05:44;91.78;;;11.77;;
23121;SDS011;11730;51.248;22.534;2022-09-27T02:08:20;27.77;;;9.40;;
23121;SDS011;11730;51.248;22.534;2022-09-27T02:11:21;83.68;;;11.90;;
23121;SDS011;11730;51.248;22.534;2022-09-27T02:24:55;65.07;;;12.90;;
23121;SDS011;11730;51.248;22.534;2022-09-27T02:29:58;46.00;;;11.10;;
23121;SDS011;11730;51.248;22.534;2022-09-27T02:32:28;15.48;;;10.88;;
23121;SDS011;11730;51.248;22.534;2022-09-27T02:34:56;29.17;;;11.40;;
23121;SDS011;11730;51.248;22.534;2022-09-27T02:37:26;18.75;;;11.85;;
23121;SDS011;11730;51.248;22.534;2022-09-27T02:39:53;22.58;;;11.40;;
23121;SDS011;11730;51.248;22.534;2022-09-27T02:42:20;30.58;;;11.25;;
23121;SDS011;11730;51.248;22.534;2022-09-27T02:44:47;115.68;;;12.85;;
23121;SDS011;11730;51.248;22.534;2022-09-27T02:55:29;15.75;;;11.55;;
23121;SDS011;11730;51.248;22.534;2022-09-27T03:03:27;17.23;;;9.38;;
23121;SDS011;11730;51.248;22.534;2022-09-27T03:06:12;57.53;;;13.27;;
23121;SDS011;11730;51.248;22.534;2022-09-27T03:08:43;51.70;;;14.27;;
23121;SDS011;11730;51.248;22.534;2022-09-27T03:11:11;145.85;;;16.13;;
23121;SDS011;11730;51.248;22.534;2022-09-27T03:13:38;22.30;;;12.55;;
23121;SDS011;11730;51.248;22.534;2022-09-27T03:16:25;271.73;;;21.90;;
23121;SDS011;11730;51.248;22.534;2022-09-27T03:18:52;161.13;;;16.65;;
23121;SDS011;11730;51.248;22.534;2022-09-27T03:21:20;118.55;;;15.25;;
23121;SDS011;11730;51.248;22.534;2022-09-27T03:23:47;35.13;;;15.43;;
23121;SDS011;11730;51.248;22.534;2022-09-27T03:26:14;51.90;;;15.18;;
23121;SDS011;11730;51.248;22.534;2022-09-27T03:28:41;368.02;;;28.60;;
23121;SDS011;11730;51.248;22.534;2022-09-27T03:31:08;59.47;;;15.07;;
23121;SDS011;11730;51.248;22.534;2022-09-27T03:33:35;32.22;;;15.10;;
23121;SDS011;11730;51.248;22.534;2022-09-27T03:36:03;33.88;;;18.48;;
23121;SDS011;11730;51.248;22.534;2022-09-27T03:38:30;37.95;;;16.30;;
23121;SDS011;11730;51.248;22.534;2022-09-27T03:40:57;35.95;;;16.23;;
23121;SDS011;11730;51.248;22.534;2022-09-27T03:43:24;29.15;;;15.50;;
23121;SDS011;11730;51.248;22.534;2022-09-27T03:45:51;32.05;;;15.45;;
23121;SDS011;11730;51.248;22.534;2022-09-27T03:48:19;107.28;;;16.27;;
23121;SDS011;11730;51.248;22.534;2022-09-27T03:50:52;67.60;;;15.05;;
23121;SDS011;11730;51.248;22.534;2022-09-27T03:53:19;25.50;;;13.05;;
23121;SDS011;11730;51.248;22.534;2022-09-27T03:55:46;25.17;;;14.35;;
23121;SDS011;11730;51.248;22.534;2022-09-27T03:58:13;20.45;;;13.13;;
23121;SDS011;11730;51.248;22.534;2022-09-27T04:00:40;32.88;;;14.48;;
23121;SDS011;11730;51.248;22.534;2022-09-27T04:03:09;81.72;;;15.65;;
23121;SDS011;11730;51.248;22.534;2022-09-27T04:05:37;28.95;;;14.65;;
23121;SDS011;11730;51.248;22.534;2022-09-27T04:08:04;31.15;;;12.40;;
23121;SDS011;11730;51.248;22.534;2022-09-27T04:10:31;73.97;;;15.15;;
23121;SDS011;11730;51.248;22.534;2022-09-27T04:12:59;21.25;;;13.90;;
23121;SDS011;11730;51.248;22.534;2022-09-27T04:15:26;17.17;;;11.88;;
23121;SDS011;11730;51.248;22.534;2022-09-27T04:17:53;18.63;;;12.85;;
23121;SDS011;11730;51.248;22.534;2022-09-27T04:20:20;19.88;;;12.80;;
23121;SDS011;11730;51.248;22.534;2022-09-27T04:22:47;23.45;;;13.45;;
23121;SDS011;11730;51.248;22.534;2022-09-27T04:25:14;20.42;;;13.18;;
23121;SDS011;11730;51.248;22.534;2022-09-27T04:27:44;22.88;;;13.80;;
23121;SDS011;11730;51.248;22.534;2022-09-27T04:30:12;18.85;;;12.60;;
23121;SDS011;11730;51.248;22.534;2022-09-27T04:32:41;19.67;;;12.63;;
23121;SDS011;11730;51.248;22.534;2022-09-27T04:35:09;18.83;;;12.95;;
23121;SDS011;11730;51.248;22.534;2022-09-27T04:37:57;18.30;;;12.77;;
23121;SDS011;11730;51.248;22.534;2022-09-27T04:40:25;20.80;;;12.77;;
23121;SDS011;11730;51.248;22.534;2022-09-27T04:42:52;21.48;;;13.63;;
23121;SDS011;11730;51.248;22.534;2022-09-27T04:45:20;17.63;;;12.48;;
23121;SDS011;11730;51.248;22.534;2022-09-27T04:47:47;19.45;;;11.32;;
23121;SDS011;11730;51.248;22.534;2022-09-27T04:50:16;15.95;;;11.70;;
23121;SDS011;11730;51.248;22.534;2022-09-27T04:52:49;15.68;;;11.70;;
23121;SDS011;11730;51.248;22.534;2022-09-27T04:55:17;18.17;;;11.85;;
23121;SDS011;11730;51.248;22.534;2022-09-27T04:57:46;16.90;;;11.23;;
23121;SDS011;11730;51.248;22.534;2022-09-27T05:00:13;18.70;;;12.00;;
23121;SDS011;11730;51.248;22.534;2022-09-27T05:02:41;19.13;;;11.75;;
23121;SDS011;11730;51.248;22.534;2022-09-27T05:05:10;15.43;;;11.40;;
23121;SDS011;11730;51.248;22.534;2022-09-27T05:07:37;17.45;;;12.35;;
23121;SDS011;11730;51.248;22.534;2022-09-27T05:10:05;17.77;;;12.57;;
23121;SDS011;11730;51.248;22.534;2022-09-27T05:12:33;17.20;;;12.32;;
23121;SDS011;11730;51.248;22.534;2022-09-27T05:15:01;17.90;;;12.73;;
23121;SDS011;11730;51.248;22.534;2022-09-27T05:17:28;19.88;;;13.32;;
23121;SDS011;11730;51.248;22.534;2022-09-27T05:19:56;18.25;;;13.90;;
23121;SDS011;11730;51.248;22.534;2022-09-27T05:22:22;19.38;;;12.80;;
23121;SDS011;11730;51.248;22.534;2022-09-27T05:24:50;18.58;;;13.73;;
23121;SDS011;11730;51.248;22.534;2022-09-27T05:27:17;20.55;;;13.98;;
23121;SDS011;11730;51.248;22.534;2022-09-27T05:29:45;24.17;;;15.07;;
23121;SDS011;11730;51.248;22.534;2022-09-27T05:32:13;21.60;;;14.57;;
23121;SDS011;11730;51.248;22.534;2022-09-27T05:34:40;19.83;;;14.50;;
23121;SDS011;11730;51.248;22.534;2022-09-27T05:37:08;24.48;;;14.52;;
23121;SDS011;11730;51.248;22.534;2022-09-27T05:39:35;22.92;;;15.73;;
23121;SDS011;11730;51.248;22.534;2022-09-27T05:42:02;23.17;;;15.25;;
23121;SDS011;11730;51.248;22.534;2022-09-27T05:44:30;25.73;;;15.43;;
23121;SDS011;11730;51.248;22.534;2022-09-27T05:46:59;23.38;;;15.20;;
23121;SDS011;11730;51.248;22.534;2022-09-27T05:49:29;25.88;;;16.10;;
23121;SDS011;11730;51.248;22.534;2022-09-27T05:51:57;24.23;;;15.43;;
23121;SDS011;11730;51.248;22.534;2022-09-27T05:54:24;24.08;;;14.52;;
23121;SDS011;11730;51.248;22.534;2022-09-27T05:56:55;24.17;;;14.55;;
23121;SDS011;11730;51.248;22.534;2022-09-27T05:59:25;22.33;;;14.57;;
23121;SDS011;11730;51.248;22.534;2022-09-27T06:01:53;20.58;;;12.75;;
23121;SDS011;11730;51.248;22.534;2022-09-27T06:04:20;20.45;;;12.57;;
23121;SDS011;11730;51.248;22.534;2022-09-27T06:06:47;22.80;;;13.43;;
23121;SDS011;11730;51.248;22.534;2022-09-27T06:09:15;19.48;;;12.65;;
23121;SDS011;11730;51.248;22.534;2022-09-27T06:11:42;22.20;;;13.25;;
23121;SDS011;11730;51.248;22.534;2022-09-27T06:14:11;23.80;;;14.10;;
23121;SDS011;11730;51.248;22.534;2022-09-27T06:16:39;19.25;;;13.40;;
23121;SDS011;11730;51.248;22.534;2022-09-27T06:19:06;20.65;;;14.48;;
23121;SDS011;11730;51.248;22.534;2022-09-27T06:21:34;23.65;;;15.13;;
23121;SDS011;11730;51.248;22.534;2022-09-27T06:24:01;23.67;;;15.38;;
23121;SDS011;11730;51.248;22.534;2022-09-27T06:26:29;23.58;;;16.05;;
23121;SDS011;11730;51.248;22.534;2022-09-27T06:28:56;29.10;;;14.38;;
23121;SDS011;11730;51.248;22.534;2022-09-27T06:31:23;23.48;;;13.75;;
23121;SDS011;11730;51.248;22.534;2022-09-27T06:33:50;21.27;;;14.15;;
23121;SDS011;11730;51.248;22.534;2022-09-27T06:36:17;27.60;;;14.63;;
23121;SDS011;11730;51.248;22.534;2022-09-27T06:38:44;26.13;;;13.90;;
23121;SDS011;11730;51.248;22.534;2022-09-27T06:41:13;24.48;;;13.93;;
23121;SDS011;11730;51.248;22.534;2022-09-27T06:43:40;27.05;;;13.60;;
23121;SDS011;11730;51.248;22.534;2022-09-27T06:46:07;20.65;;;13.85;;
23121;SDS011;11730;51.248;22.534;2022-09-27T06:48:35;23.83;;;14.70;;
23121;SDS011;11730;51.248;22.534;2022-09-27T06:51:04;21.08;;;13.82;;
23121;SDS011;11730;51.248;22.534;2022-09-27T06:53:31;19.95;;;12.85;;
23121;SDS011;11730;51.248;22.534;2022-09-27T06:55:59;22.52;;;13.65;;
23121;SDS011;11730;51.248;22.534;2022-09-27T06:58:29;139.27;;;90.72;;
23121;SDS011;11730;51.248;22.534;2022-09-27T07:01:14;43.47;;;30.02;;
23121;SDS011;11730;51.248;22.534;2022-09-27T07:03:43;22.25;;;12.85;;
23121;SDS011;11730;51.248;22.534;2022-09-27T07:06:17;21.63;;;13.60;;
23121;SDS011;11730;51.248;22.534;2022-09-27T07:08:48;20.00;;;13.68;;
23121;SDS011;11730;51.248;22.534;2022-09-27T07:11:19;21.85;;;14.32;;
23121;SDS011;11730;51.248;22.534;2022-09-27T07:13:48;22.80;;;14.07;;
23121;SDS011;11730;51.248;22.534;2022-09-27T07:16:17;24.30;;;15.60;;
23121;SDS011;11730;51.248;22.534;2022-09-27T07:18:45;25.42;;;16.00;;
23121;SDS011;11730;51.248;22.534;2022-09-27T07:21:14;21.00;;;14.45;;
23121;SDS011;11730;51.248;22.534;2022-09-27T07:23:41;16.70;;;12.40;;
23121;SDS011;11730;51.248;22.534;2022-09-27T07:26:08;20.58;;;12.98;;
23121;SDS011;11730;51.248;22.534;2022-09-27T07:28:36;15.80;;;12.30;;
23121;SDS011;11730;51.248;22.534;2022-09-27T07:31:03;16.80;;;10.05;;
23121;SDS011;11730;51.248;22.534;2022-09-27T07:33:31;13.18;;;9.57;;
23121;SDS011;11730;51.248;22.534;2022-09-27T07:35:58;12.60;;;9.45;;
23121;SDS011;11730;51.248;22.534;2022-09-27T07:38:25;10.20;;;8.68;;
23121;SDS011;11730;51.248;22.534;2022-09-27T07:40:53;26.98;;;18.75;;
23121;SDS011;11730;51.248;22.534;2022-09-27T07:43:20;12.77;;;9.95;;
23121;SDS011;11730;51.248;22.534;2022-09-27T07:45:47;12.38;;;9.63;;
23121;SDS011;11730;51.248;22.534;2022-09-27T07:48:14;11.30;;;8.77;;
23121;SDS011;11730;51.248;22.534;2022-09-27T07:50:42;12.95;;;9.45;;
23121;SDS011;11730;51.248;22.534;2022-09-27T07:53:09;20.27;;;10.27;;
23121;SDS011;11730;51.248;22.534;2022-09-27T07:55:38;20.42;;;9.48;;
23121;SDS011;11730;51.248;22.534;2022-09-27T07:58:07;15.65;;;10.73;;
23121;SDS011;11730;51.248;22.534;2022-09-27T08:00:35;11.07;;;8.43;;
23121;SDS011;11730;51.248;22.534;2022-09-27T08:03:04;9.00;;;7.88;;
23121;SDS011;11730;51.248;22.534;2022-09-27T08:05:35;8.45;;;7.05;;
23121;SDS011;11730;51.248;22.534;2022-09-27T08:08:03;8.35;;;6.82;;
23121;SDS011;11730;51.248;22.534;2022-09-27T08:10:31;10.98;;;7.05;;
23121;SDS011;11730;51.248;22.534;2022-09-27T08:13:01;10.85;;;7.20;;
23121;SDS011;11730;51.248;22.534;2022-09-27T08:15:30;9.13;;;7.57;;
23121;SDS011;11730;51.248;22.534;2022-09-27T08:17:57;180.15;;;117.30;;
23121;SDS011;11730;51.248;22.534;2022-09-27T08:20:25;15.80;;;10.77;;
23121;SDS011;11730;51.248;22.534;2022-09-27T08:22:52;12.32;;;9.63;;
23121;SDS011;11730;51.248;22.534;2022-09-27T08:25:19;17.52;;;12.27;;
23121;SDS011;11730;51.248;22.534;2022-09-27T08:27:59;12.73;;;10.80;;
23121;SDS011;11730;51.248;22.534;2022-09-27T08:30:29;12.43;;;9.73;;
23121;SDS011;11730;51.248;22.534;2022-09-27T08:32:58;10.55;;;7.78;;
23121;SDS011;11730;51.248;22.534;2022-09-27T08:35:26;7.60;;;6.43;;
23121;SDS011;11730;51.248;22.534;2022-09-27T08:37:55;7.85;;;6.70;;
23121;SDS011;11730;51.248;22.534;2022-09-27T08:40:30;6.63;;;5.90;;
23121;SDS011;11730;51.248;22.534;2022-09-27T08:43:32;7.03;;;5.65;;
23121;SDS011;11730;51.248;22.534;2022-09-27T08:46:31;9.15;;;7.38;;
23121;SDS011;11730;51.248;22.534;2022-09-27T08:49:08;6.65;;;5.95;;
23121;SDS011;11730;51.248;22.534;2022-09-27T08:51:40;8.18;;;6.20;;
23121;SDS011;11730;51.248;22.534;2022-09-27T08:54:24;8.18;;;6.55;;
23121;SDS011;11730;51.248;22.534;2022-09-27T08:56:59;8.15;;;5.70;;
23121;SDS011;11730;51.248;22.534;2022-09-27T08:59:34;9.10;;;6.85;;
23121;SDS011;11730;51.248;22.534;2022-09-27T09:02:08;9.60;;;7.13;;
23121;SDS011;11730;51.248;22.534;2022-09-27T09:04:51;7.57;;;6.38;;
23121;SDS011;11730;51.248;22.534;2022-09-27T09:21:48;6.53;;;4.10;;
23121;SDS011;11730;51.248;22.534;2022-09-27T09:27:03;4.80;;;4.00;;
23121;SDS011;11730;51.248;22.534;2022-09-27T09:35:25;7.43;;;6.38;;
23121;SDS011;11730;51.248;22.534;2022-09-27T09:37:59;7.07;;;6.38;;
23121;SDS011;11730;51.248;22.534;2022-09-27T09:46:07;8.02;;;5.03;;
23121;SDS011;11730;51.248;22.534;2022-09-27T09:51:23;24.98;;;19.92;;
23121;SDS011;11730;51.248;22.534;2022-09-27T09:54:04;5.50;;;5.00;;
23121;SDS011;11730;51.248;22.534;2022-09-27T09:56:45;5.30;;;4.43;;
23121;SDS011;11730;51.248;22.534;2022-09-27T09:59:28;5.65;;;5.00;;
23121;SDS011;11730;51.248;22.534;2022-09-27T10:05:04;5.22;;;4.72;;
23121;SDS011;11730;51.248;22.534;2022-09-27T10:07:33;7.43;;;4.60;;
23121;SDS011;11730;51.248;22.534;2022-09-27T10:10:04;5.90;;;5.18;;
23121;SDS011;11730;51.248;22.534;2022-09-27T10:12:33;6.20;;;5.28;;
23121;SDS011;11730;51.248;22.534;2022-09-27T10:15:02;8.43;;;5.90;;
23121;SDS011;11730;51.248;22.534;2022-09-27T10:17:35;7.22;;;5.43;;
23121;SDS011;11730;51.248;22.534;2022-09-27T10:20:18;8.20;;;6.40;;
23121;SDS011;11730;51.248;22.534;2022-09-27T10:23:03;8.57;;;5.93;;
23121;SDS011;11730;51.248;22.534;2022-09-27T10:28:34;8.07;;;6.47;;
23121;SDS011;11730;51.248;22.534;2022-09-27T10:31:12;8.43;;;6.97;;
23121;SDS011;11730;51.248;22.534;2022-09-27T10:33:51;7.47;;;6.68;;
23121;SDS011;11730;51.248;22.534;2022-09-27T10:36:26;7.63;;;5.95;;
23121;SDS011;11730;51.248;22.534;2022-09-27T10:38:56;12.82;;;5.88;;
23121;SDS011;11730;51.248;22.534;2022-09-27T10:41:33;6.78;;;5.75;;
23121;SDS011;11730;51.248;22.534;2022-09-27T10:44:18;11.77;;;8.63;;
23121;SDS011;11730;51.248;22.534;2022-09-27T10:46:46;10.82;;;8.10;;
23121;SDS011;11730;51.248;22.534;2022-09-27T10:49:20;7.75;;;6.47;;
23121;SDS011;11730;51.248;22.534;2022-09-27T10:51:49;12.45;;;8.05;;
23121;SDS011;11730;51.248;22.534;2022-09-27T10:54:25;5.90;;;4.72;;
23121;SDS011;11730;51.248;22.534;2022-09-27T10:57:05;12.68;;;9.50;;
23121;SDS011;11730;51.248;22.534;2022-09-27T10:59:43;11.50;;;5.72;;
23121;SDS011;11730;51.248;22.534;2022-09-27T11:02:20;8.35;;;6.07;;
23121;SDS011;11730;51.248;22.534;2022-09-27T11:07:58;8.98;;;6.22;;
23121;SDS011;11730;51.248;22.534;2022-09-27T11:10:44;7.40;;;6.10;;
23121;SDS011;11730;51.248;22.534;2022-09-27T11:13:51;8.48;;;7.15;;
23121;SDS011;11730;51.248;22.534;2022-09-27T11:16:56;8.00;;;6.03;;
23121;SDS011;11730;51.248;22.534;2022-09-27T11:25:19;7.60;;;6.10;;
23121;SDS011;11730;51.248;22.534;2022-09-27T11:31:01;7.03;;;5.82;;
23121;SDS011;11730;51.248;22.534;2022-09-27T11:34:06;6.57;;;5.63;;
23121;SDS011;11730;51.248;22.534;2022-09-27T11:36:46;6.70;;;5.93;;
23121;SDS011;11730;51.248;22.534;2022-09-27T11:39:40;7.28;;;5.95;;
23121;SDS011;11730;51.248;22.534;2022-09-27T11:57:24;11.57;;;5.95;;
23121;SDS011;11730;51.248;22.534;2022-09-27T12:00:03;9.60;;;6.05;;
23121;SDS011;11730;51.248;22.534;2022-09-27T12:13:52;7.90;;;6.22;;
23121;SDS011;11730;51.248;22.534;2022-09-27T12:16:53;7.18;;;5.75;;
23121;SDS011;11730;51.248;22.534;2022-09-27T12:19:23;6.53;;;5.20;;
23121;SDS011;11730;51.248;22.534;2022-09-27T12:21:55;6.03;;;4.80;;
23121;SDS011;11730;51.248;22.534;2022-09-27T12:24:24;8.15;;;5.63;;
23121;SDS011;11730;51.248;22.534;2022-09-27T12:26:53;5.85;;;5.25;;
23121;SDS011;11730;51.248;22.534;2022-09-27T12:32:15;6.70;;;5.07;;
23121;SDS011;11730;51.248;22.534;2022-09-27T12:35:02;9.40;;;7.93;;
23121;SDS011;11730;51.248;22.534;2022-09-27T12:38:00;6.47;;;5.10;;
23121;SDS011;11730;51.248;22.534;2022-09-27T12:40:39;8.43;;;5.88;;
23121;SDS011;11730;51.248;22.534;2022-09-27T12:43:22;7.07;;;4.85;;
23121;SDS011;11730;51.248;22.534;2022-09-27T12:52:00;6.93;;;5.13;;
23121;SDS011;11730;51.248;22.534;2022-09-27T13:00:22;8.48;;;5.47;;
23121;SDS011;11730;51.248;22.534;2022-09-27T13:09:32;8.13;;;6.05;;
23121;SDS011;11730;51.248;22.534;2022-09-27T13:14:19;14.70;;;6.53;;
23121;SDS011;11730;51.248;22.534;2022-09-27T13:16:49;9.50;;;6.00;;
23121;SDS011;11730;51.248;22.534;2022-09-27T13:19:37;10.63;;;5.97;;
23121;SDS011;11730;51.248;22.534;2022-09-27T13:22:08;9.55;;;7.18;;
23121;SDS011;11730;51.248;22.534;2022-09-27T13:24:54;7.55;;;5.07;;
23121;SDS011;11730;51.248;22.534;2022-09-27T13:29:48;12.27;;;7.15;;
23121;SDS011;11730;51.248;22.534;2022-09-27T13:32:20;8.25;;;5.22;;
23121;SDS011;11730;51.248;22.534;2022-09-27T13:34:52;18.55;;;12.70;;
23121;SDS011;11730;51.248;22.534;2022-09-27T13:40:09;6.13;;;5.53;;
23121;SDS011;11730;51.248;22.534;2022-09-27T13:48:07;11.25;;;5.90;;
23121;SDS011;11730;51.248;22.534;2022-09-27T13:50:48;6.32;;;4.70;;
23121;SDS011;11730;51.248;22.534;2022-09-27T13:53:34;9.73;;;5.88;;
23121;SDS011;11730;51.248;22.534;2022-09-27T13:56:45;8.48;;;5.18;;
23121;SDS011;11730;51.248;22.534;2022-09-27T13:59:02;8.15;;;5.57;;
23121;SDS011;11730;51.248;22.534;2022-09-27T14:01:45;5.70;;;4.75;;
23121;SDS011;11730;51.248;22.534;2022-09-27T14:04:21;8.52;;;4.93;;
23121;SDS011;11730;51.248;22.534;2022-09-27T14:06:52;7.07;;;4.45;;
23121;SDS011;11730;51.248;22.534;2022-09-27T14:09:24;6.60;;;4.57;;
23121;SDS011;11730;51.248;22.534;2022-09-27T14:12:01;8.63;;;5.03;;
23121;SDS011;11730;51.248;22.534;2022-09-27T14:14:35;9.13;;;4.40;;
23121;SDS011;11730;51.248;22.534;2022-09-27T14:17:07;9.40;;;4.78;;
23121;SDS011;11730;51.248;22.534;2022-09-27T14:19:38;7.10;;;4.47;;
23121;SDS011;11730;51.248;22.534;2022-09-27T14:22:16;9.63;;;5.80;;
23121;SDS011;11730;51.248;22.534;2022-09-27T14:24:46;6.60;;;5.35;;
23121;SDS011;11730;51.248;22.534;2022-09-27T14:32:16;5.55;;;4.50;;
23121;SDS011;11730;51.248;22.534;2022-09-27T14:38:01;7.50;;;4.53;;
23121;SDS011;11730;51.248;22.534;2022-09-27T14:40:59;7.65;;;5.75;;
23121;SDS011;11730;51.248;22.534;2022-09-27T14:43:28;8.60;;;5.40;;
23121;SDS011;11730;51.248;22.534;2022-09-27T14:45:59;6.68;;;4.90;;
23121;SDS011;11730;51.248;22.534;2022-09-27T14:48:34;5.32;;;4.47;;
23121;SDS011;11730;51.248;22.534;2022-09-27T14:51:16;7.35;;;5.60;;
23121;SDS011;11730;51.248;22.534;2022-09-27T14:53:48;6.90;;;4.75;;
23121;SDS011;11730;51.248;22.534;2022-09-27T14:56:35;9.95;;;5.07;;
23121;SDS011;11730;51.248;22.534;2022-09-27T14:59:12;9.38;;;6.03;;
23121;SDS011;11730;51.248;22.534;2022-09-27T15:01:50;5.88;;;4.68;;
23121;SDS011;11730;51.248;22.534;2022-09-27T15:04:21;7.18;;;4.75;;
23121;SDS011;11730;51.248;22.534;2022-09-27T15:06:49;6.65;;;4.95;;
23121;SDS011;11730;51.248;22.534;2022-09-27T15:09:17;6.93;;;4.90;;
23121;SDS011;11730;51.248;22.534;2022-09-27T15:11:46;9.07;;;5.40;;
23121;SDS011;11730;51.248;22.534;2022-09-27T15:14:18;7.82;;;5.13;;
23121;SDS011;11730;51.248;22.534;2022-09-27T15:16:47;6.97;;;5.47;;
23121;SDS011;11730;51.248;22.534;2022-09-27T15:21:52;9.40;;;6.60;;
23121;SDS011;11730;51.248;22.534;2022-09-27T15:27:33;10.45;;;6.63;;
23121;SDS011;11730;51.248;22.534;2022-09-27T15:30:01;12.80;;;7.90;;
23121;SDS011;11730;51.248;22.534;2022-09-27T15:32:28;10.75;;;7.70;;
23121;SDS011;11730;51.248;22.534;2022-09-27T15:34:55;12.75;;;6.63;;
23121;SDS011;11730;51.248;22.534;2022-09-27T15:37:35;10.88;;;5.82;;
23121;SDS011;11730;51.248;22.534;2022-09-27T15:42:55;10.80;;;5.00;;
23121;SDS011;11730;51.248;22.534;2022-09-27T15:45:35;10.75;;;5.18;;
23121;SDS011;11730;51.248;22.534;2022-09-27T15:48:15;8.00;;;5.82;;
23121;SDS011;11730;51.248;22.534;2022-09-27T15:50:45;8.85;;;6.05;;
23121;SDS011;11730;51.248;22.534;2022-09-27T15:56:13;9.55;;;7.28;;
23121;SDS011;11730;51.248;22.534;2022-09-27T15:58:41;11.43;;;7.93;;
23121;SDS011;11730;51.248;22.534;2022-09-27T16:01:14;13.40;;;7.35;;
23121;SDS011;11730;51.248;22.534;2022-09-27T16:03:43;11.23;;;7.85;;
23121;SDS011;11730;51.248;22.534;2022-09-27T16:06:10;14.63;;;8.18;;
23121;SDS011;11730;51.248;22.534;2022-09-27T16:08:40;17.25;;;10.50;;
23121;SDS011;11730;51.248;22.534;2022-09-27T16:11:08;12.98;;;8.90;;
23121;SDS011;11730;51.248;22.534;2022-09-27T16:13:40;12.27;;;8.05;;
23121;SDS011;11730;51.248;22.534;2022-09-27T16:16:17;14.48;;;8.32;;
23121;SDS011;11730;51.248;22.534;2022-09-27T16:18:45;12.93;;;8.43;;
23121;SDS011;11730;51.248;22.534;2022-09-27T16:21:13;15.32;;;8.07;;
23121;SDS011;11730;51.248;22.534;2022-09-27T16:23:40;14.05;;;8.10;;
23121;SDS011;11730;51.248;22.534;2022-09-27T16:26:07;10.25;;;7.20;;
23121;SDS011;11730;51.248;22.534;2022-09-27T16:28:34;12.23;;;7.72;;
23121;SDS011;11730;51.248;22.534;2022-09-27T16:31:02;13.25;;;7.05;;
23121;SDS011;11730;51.248;22.534;2022-09-27T16:33:31;11.23;;;6.90;;
23121;SDS011;11730;51.248;22.534;2022-09-27T16:35:59;10.65;;;6.95;;
23121;SDS011;11730;51.248;22.534;2022-09-27T16:38:29;10.98;;;6.82;;
23121;SDS011;11730;51.248;22.534;2022-09-27T16:41:00;9.57;;;6.57;;
23121;SDS011;11730;51.248;22.534;2022-09-27T16:43:28;12.38;;;7.80;;
23121;SDS011;11730;51.248;22.534;2022-09-27T16:46:04;11.48;;;7.60;;
23121;SDS011;11730;51.248;22.534;2022-09-27T16:48:34;9.57;;;7.65;;
23121;SDS011;11730;51.248;22.534;2022-09-27T16:51:11;11.30;;;7.57;;
23121;SDS011;11730;51.248;22.534;2022-09-27T16:53:59;11.65;;;7.90;;
23121;SDS011;11730;51.248;22.534;2022-09-27T16:56:26;11.32;;;7.72;;
23121;SDS011;11730;51.248;22.534;2022-09-27T16:58:54;13.60;;;8.85;;
23121;SDS011;11730;51.248;22.534;2022-09-27T17:01:21;12.20;;;8.45;;
23121;SDS011;11730;51.248;22.534;2022-09-27T17:03:49;10.55;;;8.45;;
23121;SDS011;11730;51.248;22.534;2022-09-27T17:06:22;13.65;;;8.90;;
23121;SDS011;11730;51.248;22.534;2022-09-27T17:08:50;16.85;;;10.25;;
23121;SDS011;11730;51.248;22.534;2022-09-27T17:11:17;13.52;;;10.05;;
23121;SDS011;11730;51.248;22.534;2022-09-27T17:13:45;15.45;;;9.95;;
23121;SDS011;11730;51.248;22.534;2022-09-27T17:16:14;16.88;;;10.13;;
23121;SDS011;11730;51.248;22.534;2022-09-27T17:18:41;12.70;;;9.57;;
23121;SDS011;11730;51.248;22.534;2022-09-27T17:21:08;14.30;;;9.70;;
23121;SDS011;11730;51.248;22.534;2022-09-27T17:23:37;16.05;;;10.80;;
23121;SDS011;11730;51.248;22.534;2022-09-27T17:26:12;14.68;;;10.13;;
23121;SDS011;11730;51.248;22.534;2022-09-27T17:28:44;18.50;;;10.80;;
23121;SDS011;11730;51.248;22.534;2022-09-27T17:31:13;15.13;;;9.80;;
23121;SDS011;11730;51.248;22.534;2022-09-27T17:33:47;15.82;;;11.52;;
23121;SDS011;11730;51.248;22.534;2022-09-27T17:36:23;15.77;;;10.77;;
23121;SDS011;11730;51.248;22.534;2022-09-27T17:38:52;17.85;;;11.43;;
23121;SDS011;11730;51.248;22.534;2022-09-27T17:41:20;16.02;;;10.52;;
23121;SDS011;11730;51.248;22.534;2022-09-27T17:43:53;13.85;;;9.77;;
23121;SDS011;11730;51.248;22.534;2022-09-27T17:46:23;22.95;;;13.18;;
23121;SDS011;11730;51.248;22.534;2022-09-27T17:48:52;16.33;;;11.15;;
23121;SDS011;11730;51.248;22.534;2022-09-27T17:51:39;20.45;;;13.35;;
23121;SDS011;11730;51.248;22.534;2022-09-27T17:54:07;17.42;;;12.18;;
23121;SDS011;11730;51.248;22.534;2022-09-27T17:56:36;18.80;;;12.68;;